sensor_id;sensor_type;location;lat;lon;timestamp;P1;durP1;ratioP1;P2;durP2;ratioP2
17496;SDS011;62150;43.582;1.456;2022-12-29T04:32:23;11.60;;;5.60;;
17496;SDS011;62150;43.582;1.456;2022-12-29T04:34:50;13.47;;;6.30;;
17496;SDS011;62150;43.582;1.456;2022-12-29T04:37:18;14.37;;;7.13;;
17496;SDS011;62150;43.582;1.456;2022-12-29T04:39:45;14.97;;;7.40;;
17496;SDS011;62150;43.582;1.456;2022-12-29T04:42:12;15.07;;;6.80;;
17496;SDS011;62150;43.582;1.456;2022-12-29T04:44:40;17.10;;;7.83;;
17496;SDS011;62150;43.582;1.456;2022-12-29T04:47:07;15.50;;;7.27;;
17496;SDS011;62150;43.582;1.456;2022-12-29T04:49:36;15.37;;;7.37;;
17496;SDS011;62150;43.582;1.456;2022-12-29T04:52:04;14.27;;;6.40;;
17496;SDS011;62150;43.582;1.456;2022-12-29T04:54:33;14.47;;;6.83;;
17496;SDS011;62150;43.582;1.456;2022-12-29T04:57:00;15.20;;;6.50;;
17496;SDS011;62150;43.582;1.456;2022-12-29T04:59:28;14.37;;;6.70;;
17496;SDS011;62150;43.582;1.456;2022-12-29T05:01:55;14.50;;;6.90;;
17496;SDS011;62150;43.582;1.456;2022-12-29T05:04:23;14.30;;;6.43;;
17496;SDS011;62150;43.582;1.456;2022-12-29T05:06:52;13.13;;;6.20;;
17496;SDS011;62150;43.582;1.456;2022-12-29T05:09:20;13.37;;;6.20;;
17496;SDS011;62150;43.582;1.456;2022-12-29T05:11:48;13.50;;;6.03;;
17496;SDS011;62150;43.582;1.456;2022-12-29T05:14:16;13.60;;;6.57;;
17496;SDS011;62150;43.582;1.456;2022-12-29T05:16:43;12.67;;;6.23;;
17496;SDS011;62150;43.582;1.456;2022-12-29T05:19:11;13.03;;;6.37;;
17496;SDS011;62150;43.582;1.456;2022-12-29T05:21:38;12.73;;;6.30;;
17496;SDS011;62150;43.582;1.456;2022-12-29T05:24:07;12.83;;;6.30;;
17496;SDS011;62150;43.582;1.456;2022-12-29T05:26:35;13.60;;;5.90;;
17496;SDS011;62150;43.582;1.456;2022-12-29T05:29:03;12.60;;;6.00;;
17496;SDS011;62150;43.582;1.456;2022-12-29T05:31:30;13.87;;;6.40;;
17496;SDS011;62150;43.582;1.456;2022-12-29T05:33:58;12.87;;;6.30;;
17496;SDS011;62150;43.582;1.456;2022-12-29T05:36:26;13.27;;;6.03;;
17496;SDS011;62150;43.582;1.456;2022-12-29T05:38:53;13.77;;;6.20;;
17496;SDS011;62150;43.582;1.456;2022-12-29T05:41:22;13.20;;;5.63;;
17496;SDS011;62150;43.582;1.456;2022-12-29T05:43:50;14.83;;;6.33;;
17496;SDS011;62150;43.582;1.456;2022-12-29T05:46:18;12.93;;;6.67;;
17496;SDS011;62150;43.582;1.456;2022-12-29T05:48:45;13.20;;;6.40;;
17496;SDS011;62150;43.582;1.456;2022-12-29T05:51:13;12.47;;;6.33;;
17496;SDS011;62150;43.582;1.456;2022-12-29T05:53:40;13.30;;;5.97;;
17496;SDS011;62150;43.582;1.456;2022-12-29T05:56:08;12.47;;;6.13;;
17496;SDS011;62150;43.582;1.456;2022-12-29T05:58:37;14.13;;;6.67;;
17496;SDS011;62150;43.582;1.456;2022-12-29T06:01:04;14.67;;;7.00;;
17496;SDS011;62150;43.582;1.456;2022-12-29T06:03:32;15.33;;;6.37;;
17496;SDS011;62150;43.582;1.456;2022-12-29T06:06:00;13.80;;;6.23;;
17496;SDS011;62150;43.582;1.456;2022-12-29T06:08:27;15.33;;;6.80;;
17496;SDS011;62150;43.582;1.456;2022-12-29T06:10:55;14.13;;;6.00;;
17496;SDS011;62150;43.582;1.456;2022-12-29T06:13:22;13.67;;;6.27;;
17496;SDS011;62150;43.582;1.456;2022-12-29T06:15:51;13.67;;;6.60;;
17496;SDS011;62150;43.582;1.456;2022-12-29T06:18:19;14.40;;;7.07;;
17496;SDS011;62150;43.582;1.456;2022-12-29T06:20:47;13.20;;;6.77;;
17496;SDS011;62150;43.582;1.456;2022-12-29T06:23:14;15.43;;;7.10;;
17496;SDS011;62150;43.582;1.456;2022-12-29T06:25:43;13.73;;;6.97;;
17496;SDS011;62150;43.582;1.456;2022-12-29T06:28:11;15.10;;;6.97;;
17496;SDS011;62150;43.582;1.456;2022-12-29T06:30:38;13.63;;;6.70;;
17496;SDS011;62150;43.582;1.456;2022-12-29T06:33:07;15.57;;;6.80;;
17496;SDS011;62150;43.582;1.456;2022-12-29T06:35:34;14.07;;;7.17;;
17496;SDS011;62150;43.582;1.456;2022-12-29T06:38:02;14.50;;;6.90;;
17496;SDS011;62150;43.582;1.456;2022-12-29T06:40:30;14.33;;;6.80;;
17496;SDS011;62150;43.582;1.456;2022-12-29T06:42:58;14.73;;;7.03;;
17496;SDS011;62150;43.582;1.456;2022-12-29T06:45:25;14.70;;;6.57;;
17496;SDS011;62150;43.582;1.456;2022-12-29T06:47:53;14.60;;;6.70;;
17496;SDS011;62150;43.582;1.456;2022-12-29T06:50:22;15.47;;;6.80;;
17496;SDS011;62150;43.582;1.456;2022-12-29T06:52:50;13.37;;;6.60;;
17496;SDS011;62150;43.582;1.456;2022-12-29T06:55:17;14.30;;;6.33;;
17496;SDS011;62150;43.582;1.456;2022-12-29T06:57:46;14.30;;;6.80;;
17496;SDS011;62150;43.582;1.456;2022-12-29T07:00:14;14.23;;;6.33;;
17496;SDS011;62150;43.582;1.456;2022-12-29T07:02:42;14.97;;;6.63;;
17496;SDS011;62150;43.582;1.456;2022-12-29T07:05:09;14.53;;;7.20;;
17496;SDS011;62150;43.582;1.456;2022-12-29T07:07:40;13.70;;;6.30;;
17496;SDS011;62150;43.582;1.456;2022-12-29T07:10:07;15.60;;;7.10;;
17496;SDS011;62150;43.582;1.456;2022-12-29T07:12:35;14.07;;;6.33;;
17496;SDS011;62150;43.582;1.456;2022-12-29T07:15:03;14.43;;;6.87;;
17496;SDS011;62150;43.582;1.456;2022-12-29T07:17:31;16.87;;;7.50;;
17496;SDS011;62150;43.582;1.456;2022-12-29T07:19:58;17.77;;;7.03;;
17496;SDS011;62150;43.582;1.456;2022-12-29T07:22:26;14.07;;;6.80;;
17496;SDS011;62150;43.582;1.456;2022-12-29T07:24:54;13.50;;;6.33;;
17496;SDS011;62150;43.582;1.456;2022-12-29T07:27:22;16.53;;;7.13;;
17496;SDS011;62150;43.582;1.456;2022-12-29T07:29:50;14.20;;;6.87;;
17496;SDS011;62150;43.582;1.456;2022-12-29T07:32:18;15.87;;;7.03;;
17496;SDS011;62150;43.582;1.456;2022-12-29T07:34:45;17.20;;;6.90;;
17496;SDS011;62150;43.582;1.456;2022-12-29T07:37:14;15.80;;;7.03;;
17496;SDS011;62150;43.582;1.456;2022-12-29T07:39:42;13.83;;;6.60;;
17496;SDS011;62150;43.582;1.456;2022-12-29T07:42:11;14.83;;;6.77;;
17496;SDS011;62150;43.582;1.456;2022-12-29T07:44:38;15.93;;;6.37;;
17496;SDS011;62150;43.582;1.456;2022-12-29T07:47:06;14.27;;;6.43;;
17496;SDS011;62150;43.582;1.456;2022-12-29T07:49:33;14.53;;;7.23;;
17496;SDS011;62150;43.582;1.456;2022-12-29T07:52:01;14.23;;;6.57;;
17496;SDS011;62150;43.582;1.456;2022-12-29T07:54:28;13.40;;;6.30;;
17496;SDS011;62150;43.582;1.456;2022-12-29T07:56:56;13.57;;;6.40;;
17496;SDS011;62150;43.582;1.456;2022-12-29T07:59:26;14.60;;;6.70;;
17496;SDS011;62150;43.582;1.456;2022-12-29T08:01:54;15.30;;;6.57;;
17496;SDS011;62150;43.582;1.456;2022-12-29T08:04:21;14.73;;;6.47;;
17496;SDS011;62150;43.582;1.456;2022-12-29T08:06:49;14.87;;;7.03;;
17496;SDS011;62150;43.582;1.456;2022-12-29T08:09:16;13.87;;;5.93;;
17496;SDS011;62150;43.582;1.456;2022-12-29T08:11:44;14.90;;;6.43;;
17496;SDS011;62150;43.582;1.456;2022-12-29T08:14:11;14.47;;;6.47;;
17496;SDS011;62150;43.582;1.456;2022-12-29T08:16:40;12.50;;;6.13;;
17496;SDS011;62150;43.582;1.456;2022-12-29T08:19:09;15.17;;;6.43;;
17496;SDS011;62150;43.582;1.456;2022-12-29T08:21:37;14.37;;;6.60;;
17496;SDS011;62150;43.582;1.456;2022-12-29T08:24:05;16.03;;;6.93;;
17496;SDS011;62150;43.582;1.456;2022-12-29T08:26:34;13.37;;;6.33;;
17496;SDS011;62150;43.582;1.456;2022-12-29T08:29:01;15.83;;;6.77;;
17496;SDS011;62150;43.582;1.456;2022-12-29T08:31:29;14.30;;;6.43;;
17496;SDS011;62150;43.582;1.456;2022-12-29T08:33:58;15.03;;;6.63;;
17496;SDS011;62150;43.582;1.456;2022-12-29T08:36:28;12.03;;;5.97;;
17496;SDS011;62150;43.582;1.456;2022-12-29T08:38:56;14.67;;;6.37;;
17496;SDS011;62150;43.582;1.456;2022-12-29T08:41:23;13.93;;;5.97;;
17496;SDS011;62150;43.582;1.456;2022-12-29T08:43:51;13.10;;;5.97;;
17496;SDS011;62150;43.582;1.456;2022-12-29T08:46:19;14.57;;;6.50;;
17496;SDS011;62150;43.582;1.456;2022-12-29T08:48:46;15.50;;;6.73;;
17496;SDS011;62150;43.582;1.456;2022-12-29T08:51:15;12.40;;;6.00;;
17496;SDS011;62150;43.582;1.456;2022-12-29T08:53:43;13.80;;;6.17;;
17496;SDS011;62150;43.582;1.456;2022-12-29T08:56:10;13.23;;;5.87;;
17496;SDS011;62150;43.582;1.456;2022-12-29T08:58:38;13.97;;;6.00;;
17496;SDS011;62150;43.582;1.456;2022-12-29T09:01:06;13.93;;;6.33;;
17496;SDS011;62150;43.582;1.456;2022-12-29T09:03:34;13.37;;;5.83;;
17496;SDS011;62150;43.582;1.456;2022-12-29T09:06:02;12.93;;;6.10;;
17496;SDS011;62150;43.582;1.456;2022-12-29T09:08:31;14.83;;;6.10;;
17496;SDS011;62150;43.582;1.456;2022-12-29T09:11:05;21.80;;;7.53;;
17496;SDS011;62150;43.582;1.456;2022-12-29T09:13:33;13.33;;;6.07;;
17496;SDS011;62150;43.582;1.456;2022-12-29T09:16:01;13.53;;;6.27;;
17496;SDS011;62150;43.582;1.456;2022-12-29T09:18:30;15.27;;;6.17;;
17496;SDS011;62150;43.582;1.456;2022-12-29T09:20:57;15.50;;;7.20;;
17496;SDS011;62150;43.582;1.456;2022-12-29T09:23:26;16.03;;;7.37;;
17496;SDS011;62150;43.582;1.456;2022-12-29T09:25:56;13.30;;;6.10;;
17496;SDS011;62150;43.582;1.456;2022-12-29T09:28:23;14.57;;;6.43;;
17496;SDS011;62150;43.582;1.456;2022-12-29T09:30:51;12.97;;;6.00;;
17496;SDS011;62150;43.582;1.456;2022-12-29T09:33:19;14.47;;;6.20;;
17496;SDS011;62150;43.582;1.456;2022-12-29T09:35:50;12.37;;;6.07;;
17496;SDS011;62150;43.582;1.456;2022-12-29T09:38:18;14.57;;;6.33;;
17496;SDS011;62150;43.582;1.456;2022-12-29T09:40:49;11.80;;;5.70;;
17496;SDS011;62150;43.582;1.456;2022-12-29T09:43:24;13.17;;;6.07;;
17496;SDS011;62150;43.582;1.456;2022-12-29T09:46:14;13.63;;;5.93;;
17496;SDS011;62150;43.582;1.456;2022-12-29T09:48:50;13.50;;;6.00;;
17496;SDS011;62150;43.582;1.456;2022-12-29T09:51:22;13.23;;;6.20;;
17496;SDS011;62150;43.582;1.456;2022-12-29T09:53:52;12.97;;;6.03;;
17496;SDS011;62150;43.582;1.456;2022-12-29T09:56:23;14.20;;;5.90;;
17496;SDS011;62150;43.582;1.456;2022-12-29T09:58:55;11.80;;;5.43;;
17496;SDS011;62150;43.582;1.456;2022-12-29T10:01:29;12.30;;;5.60;;
17496;SDS011;62150;43.582;1.456;2022-12-29T10:04:00;14.07;;;6.37;;
17496;SDS011;62150;43.582;1.456;2022-12-29T10:06:32;16.73;;;6.20;;
17496;SDS011;62150;43.582;1.456;2022-12-29T10:09:08;13.43;;;5.63;;
17496;SDS011;62150;43.582;1.456;2022-12-29T10:11:49;11.80;;;5.37;;
17496;SDS011;62150;43.582;1.456;2022-12-29T10:14:32;12.37;;;6.10;;
17496;SDS011;62150;43.582;1.456;2022-12-29T10:17:14;13.60;;;5.67;;
17496;SDS011;62150;43.582;1.456;2022-12-29T10:19:55;15.07;;;5.93;;
17496;SDS011;62150;43.582;1.456;2022-12-29T10:22:44;12.70;;;5.70;;
17496;SDS011;62150;43.582;1.456;2022-12-29T10:25:29;14.80;;;6.03;;
17496;SDS011;62150;43.582;1.456;2022-12-29T10:28:02;13.73;;;5.80;;
17496;SDS011;62150;43.582;1.456;2022-12-29T10:30:37;11.63;;;5.20;;
17496;SDS011;62150;43.582;1.456;2022-12-29T10:33:06;12.77;;;5.60;;
17496;SDS011;62150;43.582;1.456;2022-12-29T10:35:38;11.17;;;5.37;;
17496;SDS011;62150;43.582;1.456;2022-12-29T10:38:11;13.60;;;5.73;;
17496;SDS011;62150;43.582;1.456;2022-12-29T10:40:46;12.63;;;5.30;;
17496;SDS011;62150;43.582;1.456;2022-12-29T10:43:20;12.57;;;5.33;;
17496;SDS011;62150;43.582;1.456;2022-12-29T10:45:52;12.73;;;5.67;;
17496;SDS011;62150;43.582;1.456;2022-12-29T10:48:22;11.57;;;5.90;;
17496;SDS011;62150;43.582;1.456;2022-12-29T10:50:51;12.10;;;5.43;;
17496;SDS011;62150;43.582;1.456;2022-12-29T10:53:24;11.97;;;5.83;;
17496;SDS011;62150;43.582;1.456;2022-12-29T10:55:55;11.93;;;5.17;;
17496;SDS011;62150;43.582;1.456;2022-12-29T10:58:25;12.93;;;5.47;;
17496;SDS011;62150;43.582;1.456;2022-12-29T11:00:57;14.50;;;5.63;;
17496;SDS011;62150;43.582;1.456;2022-12-29T11:03:38;12.60;;;4.97;;
17496;SDS011;62150;43.582;1.456;2022-12-29T11:06:17;12.97;;;5.03;;
17496;SDS011;62150;43.582;1.456;2022-12-29T11:08:52;11.77;;;4.97;;
17496;SDS011;62150;43.582;1.456;2022-12-29T11:11:23;12.63;;;5.37;;
17496;SDS011;62150;43.582;1.456;2022-12-29T11:13:57;10.67;;;4.80;;
17496;SDS011;62150;43.582;1.456;2022-12-29T11:16:30;11.97;;;5.10;;
17496;SDS011;62150;43.582;1.456;2022-12-29T11:18:59;12.27;;;5.10;;
17496;SDS011;62150;43.582;1.456;2022-12-29T11:21:30;11.63;;;5.20;;
17496;SDS011;62150;43.582;1.456;2022-12-29T11:23:59;12.60;;;5.40;;
17496;SDS011;62150;43.582;1.456;2022-12-29T11:26:28;12.40;;;5.17;;
17496;SDS011;62150;43.582;1.456;2022-12-29T11:29:05;9.53;;;4.97;;
17496;SDS011;62150;43.582;1.456;2022-12-29T11:31:48;12.00;;;4.93;;
17496;SDS011;62150;43.582;1.456;2022-12-29T11:34:17;13.43;;;5.23;;
17496;SDS011;62150;43.582;1.456;2022-12-29T11:36:46;10.93;;;5.00;;
17496;SDS011;62150;43.582;1.456;2022-12-29T11:39:24;14.10;;;5.10;;
17496;SDS011;62150;43.582;1.456;2022-12-29T11:41:59;10.73;;;4.70;;
17496;SDS011;62150;43.582;1.456;2022-12-29T11:44:27;10.93;;;4.80;;
17496;SDS011;62150;43.582;1.456;2022-12-29T11:47:03;14.37;;;4.93;;
17496;SDS011;62150;43.582;1.456;2022-12-29T11:49:34;9.87;;;4.90;;
17496;SDS011;62150;43.582;1.456;2022-12-29T11:52:01;11.00;;;4.77;;
17496;SDS011;62150;43.582;1.456;2022-12-29T11:54:30;10.93;;;4.70;;
17496;SDS011;62150;43.582;1.456;2022-12-29T11:57:08;11.47;;;4.50;;
17496;SDS011;62150;43.582;1.456;2022-12-29T11:59:38;11.57;;;4.60;;
17496;SDS011;62150;43.582;1.456;2022-12-29T12:02:13;10.90;;;5.07;;
17496;SDS011;62150;43.582;1.456;2022-12-29T12:05:02;10.23;;;4.60;;
17496;SDS011;62150;43.582;1.456;2022-12-29T12:07:39;12.77;;;4.67;;
17496;SDS011;62150;43.582;1.456;2022-12-29T12:10:15;10.57;;;4.80;;
17496;SDS011;62150;43.582;1.456;2022-12-29T12:12:51;11.57;;;4.93;;
17496;SDS011;62150;43.582;1.456;2022-12-29T12:15:24;12.03;;;5.00;;
17496;SDS011;62150;43.582;1.456;2022-12-29T12:18:00;10.97;;;4.60;;
17496;SDS011;62150;43.582;1.456;2022-12-29T12:20:36;13.30;;;5.40;;
17496;SDS011;62150;43.582;1.456;2022-12-29T12:26:03;12.60;;;5.10;;
17496;SDS011;62150;43.582;1.456;2022-12-29T12:28:39;12.40;;;4.80;;
17496;SDS011;62150;43.582;1.456;2022-12-29T12:31:15;11.13;;;4.70;;
17496;SDS011;62150;43.582;1.456;2022-12-29T12:34:02;11.97;;;4.70;;
17496;SDS011;62150;43.582;1.456;2022-12-29T12:36:43;13.17;;;5.27;;
17496;SDS011;62150;43.582;1.456;2022-12-29T12:39:23;14.37;;;5.53;;
17496;SDS011;62150;43.582;1.456;2022-12-29T12:41:56;13.07;;;5.20;;
17496;SDS011;62150;43.582;1.456;2022-12-29T12:44:35;13.00;;;5.33;;
17496;SDS011;62150;43.582;1.456;2022-12-29T12:47:18;12.33;;;5.50;;
17496;SDS011;62150;43.582;1.456;2022-12-29T12:50:10;12.33;;;4.80;;
17496;SDS011;62150;43.582;1.456;2022-12-29T12:52:57;11.60;;;4.53;;
17496;SDS011;62150;43.582;1.456;2022-12-29T12:58:31;11.97;;;4.80;;
17496;SDS011;62150;43.582;1.456;2022-12-29T13:01:11;11.40;;;4.73;;
17496;SDS011;62150;43.582;1.456;2022-12-29T13:03:49;12.07;;;4.83;;
17496;SDS011;62150;43.582;1.456;2022-12-29T13:06:42;11.57;;;4.80;;
17496;SDS011;62150;43.582;1.456;2022-12-29T13:09:22;11.83;;;5.07;;
17496;SDS011;62150;43.582;1.456;2022-12-29T13:12:04;10.97;;;5.00;;
17496;SDS011;62150;43.582;1.456;2022-12-29T13:14:42;11.60;;;4.60;;
17496;SDS011;62150;43.582;1.456;2022-12-29T13:17:25;9.83;;;4.40;;
17496;SDS011;62150;43.582;1.456;2022-12-29T13:20:02;10.10;;;4.93;;
17496;SDS011;62150;43.582;1.456;2022-12-29T13:22:41;12.53;;;4.83;;
17496;SDS011;62150;43.582;1.456;2022-12-29T13:25:22;10.90;;;4.70;;
17496;SDS011;62150;43.582;1.456;2022-12-29T13:27:56;12.10;;;4.93;;
17496;SDS011;62150;43.582;1.456;2022-12-29T13:30:31;10.40;;;4.70;;
17496;SDS011;62150;43.582;1.456;2022-12-29T13:33:05;11.43;;;4.87;;
17496;SDS011;62150;43.582;1.456;2022-12-29T13:35:48;12.30;;;5.20;;
17496;SDS011;62150;43.582;1.456;2022-12-29T13:38:25;11.03;;;5.13;;
17496;SDS011;62150;43.582;1.456;2022-12-29T13:41:01;10.27;;;4.60;;
17496;SDS011;62150;43.582;1.456;2022-12-29T13:43:34;12.67;;;4.67;;
17496;SDS011;62150;43.582;1.456;2022-12-29T13:46:07;12.73;;;4.87;;
17496;SDS011;62150;43.582;1.456;2022-12-29T13:48:39;11.73;;;4.70;;
17496;SDS011;62150;43.582;1.456;2022-12-29T13:51:11;10.43;;;4.80;;
17496;SDS011;62150;43.582;1.456;2022-12-29T13:53:46;8.90;;;4.40;;
17496;SDS011;62150;43.582;1.456;2022-12-29T13:56:24;10.83;;;4.90;;
17496;SDS011;62150;43.582;1.456;2022-12-29T13:59:00;11.57;;;5.17;;
17496;SDS011;62150;43.582;1.456;2022-12-29T14:01:35;11.40;;;5.20;;
17496;SDS011;62150;43.582;1.456;2022-12-29T14:04:11;10.57;;;4.77;;
17496;SDS011;62150;43.582;1.456;2022-12-29T14:06:46;11.53;;;4.80;;
17496;SDS011;62150;43.582;1.456;2022-12-29T14:12:21;12.03;;;4.77;;
17496;SDS011;62150;43.582;1.456;2022-12-29T14:15:02;10.53;;;4.63;;
17496;SDS011;62150;43.582;1.456;2022-12-29T14:17:41;11.43;;;5.10;;
17496;SDS011;62150;43.582;1.456;2022-12-29T14:20:17;11.23;;;4.60;;
17496;SDS011;62150;43.582;1.456;2022-12-29T14:22:57;9.80;;;4.63;;
17496;SDS011;62150;43.582;1.456;2022-12-29T14:28:22;11.73;;;4.70;;
17496;SDS011;62150;43.582;1.456;2022-12-29T14:30:51;11.77;;;5.03;;
17496;SDS011;62150;43.582;1.456;2022-12-29T14:33:21;11.57;;;5.20;;
17496;SDS011;62150;43.582;1.456;2022-12-29T14:35:52;11.83;;;5.30;;
17496;SDS011;62150;43.582;1.456;2022-12-29T14:38:21;12.50;;;5.33;;
17496;SDS011;62150;43.582;1.456;2022-12-29T14:40:51;11.13;;;5.23;;
17496;SDS011;62150;43.582;1.456;2022-12-29T14:43:41;10.30;;;4.67;;
17496;SDS011;62150;43.582;1.456;2022-12-29T14:46:23;11.13;;;5.00;;
17496;SDS011;62150;43.582;1.456;2022-12-29T14:48:54;11.07;;;5.07;;
17496;SDS011;62150;43.582;1.456;2022-12-29T14:51:30;11.50;;;5.07;;
17496;SDS011;62150;43.582;1.456;2022-12-29T14:54:01;11.80;;;4.97;;
17496;SDS011;62150;43.582;1.456;2022-12-29T14:57:10;12.47;;;5.03;;
17496;SDS011;62150;43.582;1.456;2022-12-29T14:59:46;11.87;;;5.43;;
17496;SDS011;62150;43.582;1.456;2022-12-29T15:02:20;11.77;;;5.27;;
17496;SDS011;62150;43.582;1.456;2022-12-29T15:04:50;12.63;;;5.20;;
17496;SDS011;62150;43.582;1.456;2022-12-29T15:07:20;11.07;;;5.60;;
17496;SDS011;62150;43.582;1.456;2022-12-29T15:09:51;11.93;;;5.50;;
17496;SDS011;62150;43.582;1.456;2022-12-29T15:12:26;10.70;;;5.20;;
17496;SDS011;62150;43.582;1.456;2022-12-29T15:15:10;12.10;;;5.13;;
17496;SDS011;62150;43.582;1.456;2022-12-29T15:17:45;11.20;;;5.10;;
17496;SDS011;62150;43.582;1.456;2022-12-29T15:23:00;12.07;;;5.50;;
17496;SDS011;62150;43.582;1.456;2022-12-29T15:25:35;11.13;;;4.93;;
17496;SDS011;62150;43.582;1.456;2022-12-29T15:28:12;11.80;;;5.90;;
17496;SDS011;62150;43.582;1.456;2022-12-29T15:30:50;12.20;;;5.40;;
17496;SDS011;62150;43.582;1.456;2022-12-29T15:33:20;13.23;;;5.60;;
17496;SDS011;62150;43.582;1.456;2022-12-29T15:35:49;11.23;;;5.23;;
17496;SDS011;62150;43.582;1.456;2022-12-29T15:38:20;12.83;;;5.50;;
17496;SDS011;62150;43.582;1.456;2022-12-29T15:40:51;12.63;;;5.87;;
17496;SDS011;62150;43.582;1.456;2022-12-29T15:43:27;11.67;;;5.73;;
17496;SDS011;62150;43.582;1.456;2022-12-29T15:46:08;11.37;;;5.90;;
17496;SDS011;62150;43.582;1.456;2022-12-29T15:48:38;11.63;;;5.50;;
17496;SDS011;62150;43.582;1.456;2022-12-29T15:51:10;11.80;;;5.90;;
17496;SDS011;62150;43.582;1.456;2022-12-29T15:53:46;11.17;;;5.60;;
17496;SDS011;62150;43.582;1.456;2022-12-29T15:56:15;14.80;;;5.57;;
17496;SDS011;62150;43.582;1.456;2022-12-29T15:58:44;11.83;;;5.60;;
17496;SDS011;62150;43.582;1.456;2022-12-29T16:01:18;11.87;;;5.53;;
17496;SDS011;62150;43.582;1.456;2022-12-29T16:03:50;12.83;;;5.80;;
17496;SDS011;62150;43.582;1.456;2022-12-29T16:06:28;14.47;;;6.40;;
17496;SDS011;62150;43.582;1.456;2022-12-29T16:08:58;14.17;;;6.07;;
17496;SDS011;62150;43.582;1.456;2022-12-29T16:11:28;13.47;;;6.13;;
17496;SDS011;62150;43.582;1.456;2022-12-29T16:13:59;13.47;;;6.30;;
17496;SDS011;62150;43.582;1.456;2022-12-29T16:16:30;13.20;;;6.43;;
17496;SDS011;62150;43.582;1.456;2022-12-29T16:19:01;11.77;;;5.83;;
17496;SDS011;62150;43.582;1.456;2022-12-29T16:21:37;13.57;;;6.17;;
17496;SDS011;62150;43.582;1.456;2022-12-29T16:24:05;12.73;;;6.40;;
17496;SDS011;62150;43.582;1.456;2022-12-29T16:26:35;14.80;;;6.13;;
17496;SDS011;62150;43.582;1.456;2022-12-29T16:29:04;14.37;;;6.63;;
17496;SDS011;62150;43.582;1.456;2022-12-29T16:31:35;13.50;;;6.47;;
17496;SDS011;62150;43.582;1.456;2022-12-29T16:34:20;13.77;;;6.73;;
17496;SDS011;62150;43.582;1.456;2022-12-29T16:36:54;12.83;;;6.33;;
17496;SDS011;62150;43.582;1.456;2022-12-29T16:39:24;13.67;;;7.10;;
17496;SDS011;62150;43.582;1.456;2022-12-29T16:41:55;15.20;;;7.60;;
17496;SDS011;62150;43.582;1.456;2022-12-29T16:44:23;16.80;;;7.77;;
17496;SDS011;62150;43.582;1.456;2022-12-29T16:47:03;19.77;;;9.43;;
17496;SDS011;62150;43.582;1.456;2022-12-29T16:49:46;17.97;;;9.53;;
17496;SDS011;62150;43.582;1.456;2022-12-29T16:52:18;18.13;;;9.37;;
17496;SDS011;62150;43.582;1.456;2022-12-29T16:54:50;17.00;;;9.27;;
17496;SDS011;62150;43.582;1.456;2022-12-29T16:57:21;14.57;;;8.30;;
17496;SDS011;62150;43.582;1.456;2022-12-29T16:59:50;15.93;;;8.13;;
17496;SDS011;62150;43.582;1.456;2022-12-29T17:02:21;15.13;;;7.80;;
17496;SDS011;62150;43.582;1.456;2022-12-29T17:04:51;15.33;;;7.93;;
17496;SDS011;62150;43.582;1.456;2022-12-29T17:07:19;15.80;;;9.13;;
17496;SDS011;62150;43.582;1.456;2022-12-29T17:09:48;17.03;;;10.10;;
17496;SDS011;62150;43.582;1.456;2022-12-29T17:12:18;18.10;;;9.60;;
17496;SDS011;62150;43.582;1.456;2022-12-29T17:14:48;18.97;;;10.63;;
17496;SDS011;62150;43.582;1.456;2022-12-29T17:17:19;16.63;;;10.10;;
17496;SDS011;62150;43.582;1.456;2022-12-29T17:19:55;18.93;;;9.97;;
17496;SDS011;62150;43.582;1.456;2022-12-29T17:22:28;14.77;;;7.40;;
17496;SDS011;62150;43.582;1.456;2022-12-29T17:24:56;11.20;;;5.57;;
17496;SDS011;62150;43.582;1.456;2022-12-29T17:27:26;11.40;;;4.90;;
17496;SDS011;62150;43.582;1.456;2022-12-29T17:29:57;10.70;;;4.40;;
17496;SDS011;62150;43.582;1.456;2022-12-29T17:32:29;8.13;;;3.80;;
17496;SDS011;62150;43.582;1.456;2022-12-29T17:34:57;6.83;;;3.00;;
17496;SDS011;62150;43.582;1.456;2022-12-29T17:37:33;7.17;;;3.07;;
17496;SDS011;62150;43.582;1.456;2022-12-29T17:40:02;7.67;;;3.60;;
17496;SDS011;62150;43.582;1.456;2022-12-29T17:42:31;7.40;;;3.13;;
17496;SDS011;62150;43.582;1.456;2022-12-29T17:45:01;6.13;;;3.07;;
17496;SDS011;62150;43.582;1.456;2022-12-29T17:47:30;7.57;;;3.10;;
17496;SDS011;62150;43.582;1.456;2022-12-29T17:49:58;6.13;;;2.90;;
17496;SDS011;62150;43.582;1.456;2022-12-29T17:52:26;7.67;;;3.50;;
17496;SDS011;62150;43.582;1.456;2022-12-29T17:54:53;7.97;;;3.43;;
17496;SDS011;62150;43.582;1.456;2022-12-29T17:57:21;7.73;;;3.40;;
17496;SDS011;62150;43.582;1.456;2022-12-29T17:59:48;7.93;;;3.13;;
17496;SDS011;62150;43.582;1.456;2022-12-29T18:02:24;8.30;;;3.60;;
17496;SDS011;62150;43.582;1.456;2022-12-29T18:04:55;10.40;;;3.90;;
17496;SDS011;62150;43.582;1.456;2022-12-29T18:07:25;9.20;;;3.70;;
17496;SDS011;62150;43.582;1.456;2022-12-29T18:09:53;10.50;;;5.17;;
17496;SDS011;62150;43.582;1.456;2022-12-29T18:12:26;11.17;;;5.67;;
17496;SDS011;62150;43.582;1.456;2022-12-29T18:14:55;12.70;;;6.60;;
17496;SDS011;62150;43.582;1.456;2022-12-29T18:17:23;12.03;;;6.83;;
17496;SDS011;62150;43.582;1.456;2022-12-29T18:19:51;11.52;;;6.07;;
17496;SDS011;62150;43.582;1.456;2022-12-29T18:22:22;11.07;;;6.40;;
17496;SDS011;62150;43.582;1.456;2022-12-29T18:24:53;10.23;;;5.80;;
17496;SDS011;62150;43.582;1.456;2022-12-29T18:27:21;12.20;;;7.87;;
17496;SDS011;62150;43.582;1.456;2022-12-29T18:29:48;13.07;;;7.93;;
17496;SDS011;62150;43.582;1.456;2022-12-29T18:32:16;12.20;;;8.00;;
17496;SDS011;62150;43.582;1.456;2022-12-29T18:34:45;11.70;;;7.30;;
17496;SDS011;62150;43.582;1.456;2022-12-29T18:37:14;10.67;;;6.07;;
17496;SDS011;62150;43.582;1.456;2022-12-29T18:39:42;10.90;;;5.30;;
17496;SDS011;62150;43.582;1.456;2022-12-29T18:42:10;9.50;;;4.30;;
17496;SDS011;62150;43.582;1.456;2022-12-29T18:44:42;8.00;;;4.10;;
17496;SDS011;62150;43.582;1.456;2022-12-29T18:47:10;8.83;;;4.37;;
17496;SDS011;62150;43.582;1.456;2022-12-29T18:49:37;9.93;;;4.43;;
17496;SDS011;62150;43.582;1.456;2022-12-29T18:52:05;9.57;;;4.70;;
17496;SDS011;62150;43.582;1.456;2022-12-29T18:54:36;11.37;;;5.80;;
17496;SDS011;62150;43.582;1.456;2022-12-29T18:57:05;11.63;;;5.97;;
17496;SDS011;62150;43.582;1.456;2022-12-29T18:59:33;11.70;;;6.00;;
17496;SDS011;62150;43.582;1.456;2022-12-29T19:02:00;12.03;;;5.83;;
17496;SDS011;62150;43.582;1.456;2022-12-29T19:04:28;12.37;;;6.10;;
17496;SDS011;62150;43.582;1.456;2022-12-29T19:06:56;14.10;;;6.73;;
17496;SDS011;62150;43.582;1.456;2022-12-29T19:09:23;12.70;;;6.60;;
17496;SDS011;62150;43.582;1.456;2022-12-29T19:11:51;12.60;;;6.30;;
17496;SDS011;62150;43.582;1.456;2022-12-29T19:14:20;13.13;;;7.07;;
17496;SDS011;62150;43.582;1.456;2022-12-29T19:16:48;11.97;;;6.43;;
17496;SDS011;62150;43.582;1.456;2022-12-29T19:19:15;11.97;;;5.73;;
17496;SDS011;62150;43.582;1.456;2022-12-29T19:21:43;12.57;;;5.73;;
17496;SDS011;62150;43.582;1.456;2022-12-29T19:24:10;12.90;;;5.93;;
17496;SDS011;62150;43.582;1.456;2022-12-29T19:26:38;11.63;;;5.13;;
17496;SDS011;62150;43.582;1.456;2022-12-29T19:29:11;12.03;;;5.27;;
17496;SDS011;62150;43.582;1.456;2022-12-29T19:31:41;11.93;;;5.23;;
17496;SDS011;62150;43.582;1.456;2022-12-29T19:34:11;10.43;;;4.53;;
17496;SDS011;62150;43.582;1.456;2022-12-29T19:36:40;9.83;;;4.70;;
17496;SDS011;62150;43.582;1.456;2022-12-29T19:39:08;10.03;;;4.37;;
17496;SDS011;62150;43.582;1.456;2022-12-29T19:41:36;10.17;;;4.60;;
17496;SDS011;62150;43.582;1.456;2022-12-29T19:44:04;10.87;;;4.83;;
17496;SDS011;62150;43.582;1.456;2022-12-29T19:46:32;10.23;;;4.70;;